sensor_id;sensor_type;location;lat;lon;timestamp;temperature;humidity
16838;DHT22;19510;54.486;9.046;2023-11-19T08:16:18;9.90;99.90
16838;DHT22;19510;54.486;9.046;2023-11-19T08:18:44;10.00;99.90
16838;DHT22;19510;54.486;9.046;2023-11-19T08:21:10;10.00;99.90
16838;DHT22;19510;54.486;9.046;2023-11-19T08:23:36;10.10;99.90
16838;DHT22;19510;54.486;9.046;2023-11-19T08:26:04;10.10;99.90
16838;DHT22;19510;54.486;9.046;2023-11-19T08:28:30;10.10;99.90
16838;DHT22;19510;54.486;9.046;2023-11-19T08:30:56;10.20;99.90
16838;DHT22;19510;54.486;9.046;2023-11-19T08:33:22;10.20;99.90
16838;DHT22;19510;54.486;9.046;2023-11-19T08:35:48;10.20;99.90
16838;DHT22;19510;54.486;9.046;2023-11-19T08:38:14;10.20;99.90
16838;DHT22;19510;54.486;9.046;2023-11-19T08:40:39;10.20;99.90
16838;DHT22;19510;54.486;9.046;2023-11-19T08:43:05;10.30;99.90
16838;DHT22;19510;54.486;9.046;2023-11-19T08:45:32;10.30;99.90
16838;DHT22;19510;54.486;9.046;2023-11-19T08:47:57;10.30;99.90
16838;DHT22;19510;54.486;9.046;2023-11-19T08:50:23;10.30;99.90
16838;DHT22;19510;54.486;9.046;2023-11-19T08:52:49;10.30;99.90
16838;DHT22;19510;54.486;9.046;2023-11-19T08:55:15;10.30;99.90
16838;DHT22;19510;54.486;9.046;2023-11-19T08:57:40;10.40;99.90
16838;DHT22;19510;54.486;9.046;2023-11-19T09:00:07;10.40;99.90
16838;DHT22;19510;54.486;9.046;2023-11-19T09:02:34;10.50;99.90
16838;DHT22;19510;54.486;9.046;2023-11-19T09:05:00;10.50;99.90
16838;DHT22;19510;54.486;9.046;2023-11-19T09:07:27;10.50;99.90
16838;DHT22;19510;54.486;9.046;2023-11-19T09:09:52;10.50;99.90
16838;DHT22;19510;54.486;9.046;2023-11-19T09:12:18;10.50;99.90
16838;DHT22;19510;54.486;9.046;2023-11-19T09:14:44;10.40;99.90
16838;DHT22;19510;54.486;9.046;2023-11-19T09:17:11;10.40;99.90
16838;DHT22;19510;54.486;9.046;2023-11-19T09:19:36;10.40;99.90
16838;DHT22;19510;54.486;9.046;2023-11-19T09:22:02;10.40;99.90
16838;DHT22;19510;54.486;9.046;2023-11-19T09:24:28;10.40;99.90
16838;DHT22;19510;54.486;9.046;2023-11-19T09:26:53;10.50;99.90
16838;DHT22;19510;54.486;9.046;2023-11-19T09:29:20;10.50;99.90
16838;DHT22;19510;54.486;9.046;2023-11-19T09:31:46;10.50;99.90
16838;DHT22;19510;54.486;9.046;2023-11-19T09:34:34;10.50;99.90
16838;DHT22;19510;54.486;9.046;2023-11-19T09:37:00;10.50;99.90
16838;DHT22;19510;54.486;9.046;2023-11-19T09:39:26;10.50;99.90
16838;DHT22;19510;54.486;9.046;2023-11-19T09:41:52;10.50;99.90
16838;DHT22;19510;54.486;9.046;2023-11-19T09:44:17;10.50;99.90
16838;DHT22;19510;54.486;9.046;2023-11-19T09:46:44;10.50;99.90
16838;DHT22;19510;54.486;9.046;2023-11-19T09:49:12;10.60;99.90
16838;DHT22;19510;54.486;9.046;2023-11-19T09:51:38;10.60;99.90
16838;DHT22;19510;54.486;9.046;2023-11-19T09:54:04;10.60;99.90
16838;DHT22;19510;54.486;9.046;2023-11-19T09:56:30;10.70;99.90
16838;DHT22;19510;54.486;9.046;2023-11-19T09:58:59;10.80;99.90
16838;DHT22;19510;54.486;9.046;2023-11-19T10:01:25;10.80;99.90
16838;DHT22;19510;54.486;9.046;2023-11-19T10:03:53;10.90;99.90
16838;DHT22;19510;54.486;9.046;2023-11-19T10:06:20;10.90;99.90
16838;DHT22;19510;54.486;9.046;2023-11-19T10:08:46;10.90;99.90
16838;DHT22;19510;54.486;9.046;2023-11-19T10:11:13;10.90;99.90
16838;DHT22;19510;54.486;9.046;2023-11-19T10:13:39;11.00;99.90
16838;DHT22;19510;54.486;9.046;2023-11-19T10:16:13;11.10;99.90
16838;DHT22;19510;54.486;9.046;2023-11-19T10:18:49;11.10;99.90
16838;DHT22;19510;54.486;9.046;2023-11-19T10:21:18;11.20;99.90
16838;DHT22;19510;54.486;9.046;2023-11-19T10:23:55;11.20;99.90
16838;DHT22;19510;54.486;9.046;2023-11-19T10:26:26;11.30;99.90
16838;DHT22;19510;54.486;9.046;2023-11-19T10:28:52;11.30;99.90
16838;DHT22;19510;54.486;9.046;2023-11-19T10:31:20;11.30;99.90
16838;DHT22;19510;54.486;9.046;2023-11-19T10:33:52;11.30;99.90
16838;DHT22;19510;54.486;9.046;2023-11-19T10:36:18;11.20;99.90
16838;DHT22;19510;54.486;9.046;2023-11-19T10:38:55;11.20;99.90
16838;DHT22;19510;54.486;9.046;2023-11-19T10:41:32;11.30;99.90
16838;DHT22;19510;54.486;9.046;2023-11-19T10:44:01;11.40;99.90
16838;DHT22;19510;54.486;9.046;2023-11-19T10:46:39;11.40;99.90
16838;DHT22;19510;54.486;9.046;2023-11-19T10:49:06;11.40;99.90
16838;DHT22;19510;54.486;9.046;2023-11-19T10:51:32;11.40;99.90
16838;DHT22;19510;54.486;9.046;2023-11-19T10:54:07;11.50;99.90
16838;DHT22;19510;54.486;9.046;2023-11-19T10:56:34;11.50;99.90
16838;DHT22;19510;54.486;9.046;2023-11-19T10:59:00;11.50;99.90
16838;DHT22;19510;54.486;9.046;2023-11-19T11:01:45;11.50;99.90
16838;DHT22;19510;54.486;9.046;2023-11-19T11:04:14;11.50;99.90
16838;DHT22;19510;54.486;9.046;2023-11-19T11:06:41;11.50;99.90
16838;DHT22;19510;54.486;9.046;2023-11-19T11:09:07;11.50;99.90
16838;DHT22;19510;54.486;9.046;2023-11-19T11:11:39;11.50;99.90
16838;DHT22;19510;54.486;9.046;2023-11-19T11:14:16;11.50;99.90
16838;DHT22;19510;54.486;9.046;2023-11-19T11:16:49;11.50;99.90
16838;DHT22;19510;54.486;9.046;2023-11-19T11:19:17;11.50;99.90
16838;DHT22;19510;54.486;9.046;2023-11-19T11:25:11;11.50;99.90
16838;DHT22;19510;54.486;9.046;2023-11-19T11:38:10;11.50;99.90
16838;DHT22;19510;54.486;9.046;2023-11-19T11:43:53;11.50;99.90
16838;DHT22;19510;54.486;9.046;2023-11-19T11:49:07;11.50;99.90
16838;DHT22;19510;54.486;9.046;2023-11-19T11:57:06;11.40;99.90
16838;DHT22;19510;54.486;9.046;2023-11-19T11:59:45;11.30;99.90
16838;DHT22;19510;54.486;9.046;2023-11-19T12:02:17;11.30;99.90
16838;DHT22;19510;54.486;9.046;2023-11-19T12:04:47;11.40;99.90
16838;DHT22;19510;54.486;9.046;2023-11-19T12:07:16;11.50;99.90
16838;DHT22;19510;54.486;9.046;2023-11-19T12:10:12;11.60;99.90
16838;DHT22;19510;54.486;9.046;2023-11-19T12:16:19;11.80;99.90
16838;DHT22;19510;54.486;9.046;2023-11-19T12:18:47;11.80;99.90
16838;DHT22;19510;54.486;9.046;2023-11-19T12:21:28;11.70;99.90
16838;DHT22;19510;54.486;9.046;2023-11-19T12:23:55;11.70;99.90
16838;DHT22;19510;54.486;9.046;2023-11-19T12:26:36;11.70;99.90
16838;DHT22;19510;54.486;9.046;2023-11-19T12:29:02;11.60;99.90
16838;DHT22;19510;54.486;9.046;2023-11-19T12:31:31;11.60;99.90
16838;DHT22;19510;54.486;9.046;2023-11-19T12:33:57;11.60;99.90
16838;DHT22;19510;54.486;9.046;2023-11-19T12:36:23;11.50;99.90
16838;DHT22;19510;54.486;9.046;2023-11-19T12:38:49;11.50;99.90
16838;DHT22;19510;54.486;9.046;2023-11-19T12:41:15;11.50;99.90
16838;DHT22;19510;54.486;9.046;2023-11-19T12:43:45;11.50;99.90
16838;DHT22;19510;54.486;9.046;2023-11-19T12:48:46;11.60;99.90
16838;DHT22;19510;54.486;9.046;2023-11-19T12:51:12;11.60;99.90
16838;DHT22;19510;54.486;9.046;2023-11-19T12:53:53;11.60;99.90
16838;DHT22;19510;54.486;9.046;2023-11-19T12:56:24;11.60;99.90
16838;DHT22;19510;54.486;9.046;2023-11-19T12:58:50;11.60;99.90
16838;DHT22;19510;54.486;9.046;2023-11-19T13:01:20;11.50;99.90
16838;DHT22;19510;54.486;9.046;2023-11-19T13:03:46;11.50;99.90
16838;DHT22;19510;54.486;9.046;2023-11-19T13:06:14;11.50;99.90
16838;DHT22;19510;54.486;9.046;2023-11-19T13:08:41;11.50;99.90
16838;DHT22;19510;54.486;9.046;2023-11-19T13:11:19;11.40;99.90
16838;DHT22;19510;54.486;9.046;2023-11-19T13:14:00;11.50;99.90
16838;DHT22;19510;54.486;9.046;2023-11-19T13:16:27;11.60;99.90
16838;DHT22;19510;54.486;9.046;2023-11-19T13:18:53;11.60;99.90
16838;DHT22;19510;54.486;9.046;2023-11-19T13:21:19;11.60;99.90
16838;DHT22;19510;54.486;9.046;2023-11-19T13:23:44;11.60;99.90
16838;DHT22;19510;54.486;9.046;2023-11-19T13:26:11;11.60;99.90
16838;DHT22;19510;54.486;9.046;2023-11-19T13:28:37;11.60;99.90
16838;DHT22;19510;54.486;9.046;2023-11-19T13:31:03;11.60;99.90
16838;DHT22;19510;54.486;9.046;2023-11-19T13:33:29;11.60;99.90
16838;DHT22;19510;54.486;9.046;2023-11-19T13:35:56;11.50;99.90
16838;DHT22;19510;54.486;9.046;2023-11-19T13:38:22;11.50;99.90
16838;DHT22;19510;54.486;9.046;2023-11-19T13:40:50;11.40;99.90
16838;DHT22;19510;54.486;9.046;2023-11-19T13:43:16;11.40;99.90
16838;DHT22;19510;54.486;9.046;2023-11-19T13:45:42;11.40;99.90
16838;DHT22;19510;54.486;9.046;2023-11-19T13:48:08;11.40;99.90
16838;DHT22;19510;54.486;9.046;2023-11-19T13:50:36;11.30;99.90
16838;DHT22;19510;54.486;9.046;2023-11-19T13:53:01;11.30;99.90
16838;DHT22;19510;54.486;9.046;2023-11-19T13:55:29;11.30;99.90
16838;DHT22;19510;54.486;9.046;2023-11-19T13:57:55;11.20;99.90
16838;DHT22;19510;54.486;9.046;2023-11-19T14:00:21;11.20;99.90
16838;DHT22;19510;54.486;9.046;2023-11-19T14:02:48;11.10;99.90
16838;DHT22;19510;54.486;9.046;2023-11-19T14:05:14;11.20;99.90
16838;DHT22;19510;54.486;9.046;2023-11-19T14:07:44;11.10;99.90
16838;DHT22;19510;54.486;9.046;2023-11-19T14:10:10;11.20;99.90
16838;DHT22;19510;54.486;9.046;2023-11-19T14:12:39;11.20;99.90
16838;DHT22;19510;54.486;9.046;2023-11-19T14:15:05;11.20;99.90
16838;DHT22;19510;54.486;9.046;2023-11-19T14:17:32;11.30;99.90
16838;DHT22;19510;54.486;9.046;2023-11-19T14:19:58;11.20;99.90
16838;DHT22;19510;54.486;9.046;2023-11-19T14:22:23;11.20;99.90
16838;DHT22;19510;54.486;9.046;2023-11-19T14:24:50;11.20;99.90
16838;DHT22;19510;54.486;9.046;2023-11-19T14:27:16;11.10;99.90
16838;DHT22;19510;54.486;9.046;2023-11-19T14:29:45;11.10;99.90
16838;DHT22;19510;54.486;9.046;2023-11-19T14:32:11;11.10;99.90
16838;DHT22;19510;54.486;9.046;2023-11-19T14:34:37;11.10;99.90
16838;DHT22;19510;54.486;9.046;2023-11-19T14:37:03;11.10;99.90
16838;DHT22;19510;54.486;9.046;2023-11-19T14:39:29;11.10;99.90
16838;DHT22;19510;54.486;9.046;2023-11-19T14:41:57;11.10;99.90
16838;DHT22;19510;54.486;9.046;2023-11-19T14:44:26;11.10;99.90
16838;DHT22;19510;54.486;9.046;2023-11-19T14:46:52;11.20;99.90
16838;DHT22;19510;54.486;9.046;2023-11-19T14:55:49;11.10;99.90
16838;DHT22;19510;54.486;9.046;2023-11-19T14:58:15;11.10;99.90
16838;DHT22;19510;54.486;9.046;2023-11-19T15:00:41;11.10;99.90
16838;DHT22;19510;54.486;9.046;2023-11-19T15:03:09;11.00;99.90
16838;DHT22;19510;54.486;9.046;2023-11-19T15:05:34;11.00;99.90
16838;DHT22;19510;54.486;9.046;2023-11-19T15:08:00;11.00;99.90
16838;DHT22;19510;54.486;9.046;2023-11-19T15:10:26;10.90;99.90
16838;DHT22;19510;54.486;9.046;2023-11-19T15:12:51;10.90;99.90
16838;DHT22;19510;54.486;9.046;2023-11-19T15:15:18;10.80;99.90
16838;DHT22;19510;54.486;9.046;2023-11-19T15:17:44;10.80;99.90
16838;DHT22;19510;54.486;9.046;2023-11-19T15:20:10;10.70;99.90
16838;DHT22;19510;54.486;9.046;2023-11-19T15:22:38;10.70;99.90
16838;DHT22;19510;54.486;9.046;2023-11-19T15:25:04;10.70;99.90
16838;DHT22;19510;54.486;9.046;2023-11-19T15:27:35;10.60;99.90
16838;DHT22;19510;54.486;9.046;2023-11-19T15:54:03;10.60;99.90
16838;DHT22;19510;54.486;9.046;2023-11-19T15:56:30;10.60;99.90
16838;DHT22;19510;54.486;9.046;2023-11-19T15:58:56;10.60;99.90
16838;DHT22;19510;54.486;9.046;2023-11-19T16:01:22;10.60;99.90
16838;DHT22;19510;54.486;9.046;2023-11-19T16:03:48;10.60;99.90
16838;DHT22;19510;54.486;9.046;2023-11-19T16:06:13;10.60;99.90
16838;DHT22;19510;54.486;9.046;2023-11-19T16:08:39;10.60;99.90
16838;DHT22;19510;54.486;9.046;2023-11-19T16:11:05;10.60;99.90
16838;DHT22;19510;54.486;9.046;2023-11-19T16:13:45;10.50;99.90
16838;DHT22;19510;54.486;9.046;2023-11-19T16:16:14;10.60;99.90
16838;DHT22;19510;54.486;9.046;2023-11-19T16:18:39;10.60;99.90
16838;DHT22;19510;54.486;9.046;2023-11-19T16:21:05;10.60;99.90
16838;DHT22;19510;54.486;9.046;2023-11-19T16:23:34;10.50;99.90
16838;DHT22;19510;54.486;9.046;2023-11-19T16:26:00;10.50;99.90
16838;DHT22;19510;54.486;9.046;2023-11-19T16:28:27;10.50;99.90
16838;DHT22;19510;54.486;9.046;2023-11-19T16:30:52;10.50;99.90
16838;DHT22;19510;54.486;9.046;2023-11-19T16:33:18;10.60;99.90
16838;DHT22;19510;54.486;9.046;2023-11-19T16:35:44;10.70;99.90
16838;DHT22;19510;54.486;9.046;2023-11-19T16:43:18;10.80;99.90
16838;DHT22;19510;54.486;9.046;2023-11-19T16:45:47;10.80;99.90
16838;DHT22;19510;54.486;9.046;2023-11-19T17:01:09;10.80;99.90
16838;DHT22;19510;54.486;9.046;2023-11-19T17:03:44;10.80;99.90
16838;DHT22;19510;54.486;9.046;2023-11-19T17:06:26;10.80;99.90
16838;DHT22;19510;54.486;9.046;2023-11-19T17:08:53;10.70;99.90
16838;DHT22;19510;54.486;9.046;2023-11-19T17:11:26;10.70;99.90
16838;DHT22;19510;54.486;9.046;2023-11-19T17:14:13;10.70;99.90
16838;DHT22;19510;54.486;9.046;2023-11-19T17:16:48;10.70;99.90
16838;DHT22;19510;54.486;9.046;2023-11-19T17:19:17;10.70;99.90
16838;DHT22;19510;54.486;9.046;2023-11-19T17:21:45;10.70;99.90
16838;DHT22;19510;54.486;9.046;2023-11-19T17:24:13;10.60;99.90
16838;DHT22;19510;54.486;9.046;2023-11-19T17:26:41;10.60;99.90
16838;DHT22;19510;54.486;9.046;2023-11-19T17:29:13;10.70;99.90
16838;DHT22;19510;54.486;9.046;2023-11-19T17:31:49;10.60;99.90
16838;DHT22;19510;54.486;9.046;2023-11-19T17:34:38;10.60;99.90
16838;DHT22;19510;54.486;9.046;2023-11-19T17:37:08;10.60;99.90
16838;DHT22;19510;54.486;9.046;2023-11-19T17:39:36;10.60;99.90
16838;DHT22;19510;54.486;9.046;2023-11-19T17:44:37;10.60;99.90
16838;DHT22;19510;54.486;9.046;2023-11-19T17:47:03;10.60;99.90
16838;DHT22;19510;54.486;9.046;2023-11-19T17:49:29;10.60;99.90
16838;DHT22;19510;54.486;9.046;2023-11-19T17:51:55;10.60;99.90
16838;DHT22;19510;54.486;9.046;2023-11-19T17:54:20;10.50;99.90
16838;DHT22;19510;54.486;9.046;2023-11-19T17:56:46;10.60;99.90
16838;DHT22;19510;54.486;9.046;2023-11-19T17:59:12;10.60;99.90
16838;DHT22;19510;54.486;9.046;2023-11-19T18:01:41;10.60;99.90
16838;DHT22;19510;54.486;9.046;2023-11-19T18:04:09;10.60;99.90
16838;DHT22;19510;54.486;9.046;2023-11-19T18:06:35;10.70;99.90
16838;DHT22;19510;54.486;9.046;2023-11-19T18:09:03;10.70;99.90
16838;DHT22;19510;54.486;9.046;2023-11-19T18:11:36;10.70;99.90
16838;DHT22;19510;54.486;9.046;2023-11-19T18:14:02;10.80;99.90
16838;DHT22;19510;54.486;9.046;2023-11-19T18:16:28;10.80;99.90
16838;DHT22;19510;54.486;9.046;2023-11-19T18:22:16;10.80;99.90
16838;DHT22;19510;54.486;9.046;2023-11-19T18:24:42;10.90;99.90
16838;DHT22;19510;54.486;9.046;2023-11-19T18:27:08;10.90;99.90
16838;DHT22;19510;54.486;9.046;2023-11-19T18:29:34;10.90;99.90
16838;DHT22;19510;54.486;9.046;2023-11-19T18:32:01;10.90;99.90
16838;DHT22;19510;54.486;9.046;2023-11-19T18:34:27;10.90;99.90
16838;DHT22;19510;54.486;9.046;2023-11-19T18:40:03;10.90;99.90
16838;DHT22;19510;54.486;9.046;2023-11-19T18:42:30;11.00;99.90
16838;DHT22;19510;54.486;9.046;2023-11-19T18:44:56;10.90;99.90
16838;DHT22;19510;54.486;9.046;2023-11-19T18:47:22;11.00;99.90
16838;DHT22;19510;54.486;9.046;2023-11-19T18:49:48;11.00;99.90
16838;DHT22;19510;54.486;9.046;2023-11-19T18:52:15;11.00;99.90
16838;DHT22;19510;54.486;9.046;2023-11-19T18:54:41;11.00;99.90
16838;DHT22;19510;54.486;9.046;2023-11-19T18:57:06;11.00;99.90
16838;DHT22;19510;54.486;9.046;2023-11-19T18:59:32;10.90;99.90
16838;DHT22;19510;54.486;9.046;2023-11-19T19:01:58;11.00;99.90
16838;DHT22;19510;54.486;9.046;2023-11-19T19:04:24;10.90;99.90
16838;DHT22;19510;54.486;9.046;2023-11-19T19:06:52;11.00;99.90
16838;DHT22;19510;54.486;9.046;2023-11-19T19:09:18;10.90;99.90
16838;DHT22;19510;54.486;9.046;2023-11-19T19:11:44;10.90;99.90
16838;DHT22;19510;54.486;9.046;2023-11-19T19:14:14;10.90;99.90
16838;DHT22;19510;54.486;9.046;2023-11-19T19:16:57;10.90;99.90
16838;DHT22;19510;54.486;9.046;2023-11-19T19:19:29;10.90;99.90
16838;DHT22;19510;54.486;9.046;2023-11-19T19:21:55;10.80;99.90
16838;DHT22;19510;54.486;9.046;2023-11-19T19:24:21;10.80;99.90
16838;DHT22;19510;54.486;9.046;2023-11-19T19:26:47;10.80;99.90
16838;DHT22;19510;54.486;9.046;2023-11-19T19:29:12;10.80;99.90
16838;DHT22;19510;54.486;9.046;2023-11-19T19:31:38;10.80;99.90
16838;DHT22;19510;54.486;9.046;2023-11-19T19:34:04;10.80;99.90
16838;DHT22;19510;54.486;9.046;2023-11-19T19:36:29;10.80;99.90
16838;DHT22;19510;54.486;9.046;2023-11-19T19:38:57;10.80;99.90
16838;DHT22;19510;54.486;9.046;2023-11-19T19:41:24;10.80;99.90
16838;DHT22;19510;54.486;9.046;2023-11-19T19:43:52;10.80;99.90
16838;DHT22;19510;54.486;9.046;2023-11-19T19:46:18;10.80;99.90
16838;DHT22;19510;54.486;9.046;2023-11-19T19:48:45;10.80;99.90
16838;DHT22;19510;54.486;9.046;2023-11-19T19:51:10;10.80;99.90
16838;DHT22;19510;54.486;9.046;2023-11-19T19:53:36;10.80;99.90
16838;DHT22;19510;54.486;9.046;2023-11-19T19:56:07;10.80;99.90
16838;DHT22;19510;54.486;9.046;2023-11-19T19:58:34;10.80;99.90
16838;DHT22;19510;54.486;9.046;2023-11-19T20:01:00;10.80;99.90
16838;DHT22;19510;54.486;9.046;2023-11-19T20:03:28;10.80;99.90
16838;DHT22;19510;54.486;9.046;2023-11-19T20:05:58;10.80;99.90
16838;DHT22;19510;54.486;9.046;2023-11-19T20:08:24;10.80;99.90
16838;DHT22;19510;54.486;9.046;2023-11-19T20:10:50;10.80;99.90
16838;DHT22;19510;54.486;9.046;2023-11-19T20:13:15;10.80;99.90
16838;DHT22;19510;54.486;9.046;2023-11-19T20:15:41;10.90;99.90
16838;DHT22;19510;54.486;9.046;2023-11-19T20:18:08;10.80;99.90
16838;DHT22;19510;54.486;9.046;2023-11-19T20:20:39;10.90;99.90
16838;DHT22;19510;54.486;9.046;2023-11-19T20:23:06;10.80;99.90
16838;DHT22;19510;54.486;9.046;2023-11-19T20:25:32;10.90;99.90
16838;DHT22;19510;54.486;9.046;2023-11-19T20:27:57;10.90;99.90
16838;DHT22;19510;54.486;9.046;2023-11-19T20:30:23;10.90;99.90
16838;DHT22;19510;54.486;9.046;2023-11-19T20:32:49;10.90;99.90
16838;DHT22;19510;54.486;9.046;2023-11-19T20:35:15;10.90;99.90
16838;DHT22;19510;54.486;9.046;2023-11-19T20:37:40;10.90;99.90
16838;DHT22;19510;54.486;9.046;2023-11-19T20:40:07;10.90;99.90
16838;DHT22;19510;54.486;9.046;2023-11-19T20:42:34;10.90;99.90
16838;DHT22;19510;54.486;9.046;2023-11-19T20:45:07;10.90;99.90
16838;DHT22;19510;54.486;9.046;2023-11-19T20:47:37;10.90;99.90
16838;DHT22;19510;54.486;9.046;2023-11-19T20:50:03;10.90;99.90
16838;DHT22;19510;54.486;9.046;2023-11-19T20:52:33;10.90;99.90
16838;DHT22;19510;54.486;9.046;2023-11-19T20:54:59;10.90;99.90
16838;DHT22;19510;54.486;9.046;2023-11-19T20:57:24;10.90;99.90
16838;DHT22;19510;54.486;9.046;2023-11-19T20:59:50;10.90;99.90
16838;DHT22;19510;54.486;9.046;2023-11-19T21:02:16;10.90;99.90
16838;DHT22;19510;54.486;9.046;2023-11-19T21:04:41;10.90;99.90
16838;DHT22;19510;54.486;9.046;2023-11-19T21:07:09;10.90;99.90
16838;DHT22;19510;54.486;9.046;2023-11-19T21:09:35;10.80;99.90
16838;DHT22;19510;54.486;9.046;2023-11-19T21:12:01;10.90;99.90
16838;DHT22;19510;54.486;9.046;2023-11-19T21:14:28;10.90;99.90
16838;DHT22;19510;54.486;9.046;2023-11-19T21:16:55;10.90;99.90
16838;DHT22;19510;54.486;9.046;2023-11-19T21:19:21;10.90;99.90
16838;DHT22;19510;54.486;9.046;2023-11-19T21:21:46;10.80;99.90
16838;DHT22;19510;54.486;9.046;2023-11-19T21:24:12;10.80;99.90
16838;DHT22;19510;54.486;9.046;2023-11-19T21:26:38;10.80;99.90
16838;DHT22;19510;54.486;9.046;2023-11-19T21:29:03;10.80;99.90
16838;DHT22;19510;54.486;9.046;2023-11-19T21:31:30;10.80;99.90
16838;DHT22;19510;54.486;9.046;2023-11-19T21:33:56;10.80;99.90
16838;DHT22;19510;54.486;9.046;2023-11-19T21:36:22;10.80;99.90
16838;DHT22;19510;54.486;9.046;2023-11-19T21:38:50;10.80;99.90
16838;DHT22;19510;54.486;9.046;2023-11-19T21:41:15;10.80;99.90
16838;DHT22;19510;54.486;9.046;2023-11-19T21:43:41;10.80;99.90
16838;DHT22;19510;54.486;9.046;2023-11-19T21:46:07;10.70;99.90
16838;DHT22;19510;54.486;9.046;2023-11-19T21:48:32;10.80;99.90
16838;DHT22;19510;54.486;9.046;2023-11-19T21:51:03;10.80;99.90
16838;DHT22;19510;54.486;9.046;2023-11-19T21:53:28;10.70;99.90
16838;DHT22;19510;54.486;9.046;2023-11-19T21:55:55;10.70;99.90
16838;DHT22;19510;54.486;9.046;2023-11-19T21:58:21;10.80;99.90
16838;DHT22;19510;54.486;9.046;2023-11-19T22:00:46;10.80;99.90
16838;DHT22;19510;54.486;9.046;2023-11-19T22:03:12;10.80;99.90
16838;DHT22;19510;54.486;9.046;2023-11-19T22:05:38;10.80;99.90
16838;DHT22;19510;54.486;9.046;2023-11-19T22:08:03;10.80;99.90
16838;DHT22;19510;54.486;9.046;2023-11-19T22:10:29;10.80;99.90
16838;DHT22;19510;54.486;9.046;2023-11-19T22:12:55;10.80;99.90
16838;DHT22;19510;54.486;9.046;2023-11-19T22:15:20;10.80;99.90
16838;DHT22;19510;54.486;9.046;2023-11-19T22:17:46;10.80;99.90
16838;DHT22;19510;54.486;9.046;2023-11-19T22:20:14;10.80;99.90
16838;DHT22;19510;54.486;9.046;2023-11-19T22:22:40;10.70;99.90
16838;DHT22;19510;54.486;9.046;2023-11-19T22:25:06;10.80;99.90
16838;DHT22;19510;54.486;9.046;2023-11-19T22:27:34;10.80;99.90
16838;DHT22;19510;54.486;9.046;2023-11-19T22:30:00;10.70;99.90
16838;DHT22;19510;54.486;9.046;2023-11-19T22:32:27;10.80;99.90
16838;DHT22;19510;54.486;9.046;2023-11-19T22:34:53;10.80;99.90
16838;DHT22;19510;54.486;9.046;2023-11-19T22:37:19;10.70;99.90
16838;DHT22;19510;54.486;9.046;2023-11-19T22:39:45;10.70;99.90
16838;DHT22;19510;54.486;9.046;2023-11-19T22:42:11;10.70;99.90
16838;DHT22;19510;54.486;9.046;2023-11-19T22:44:37;10.70;99.90
16838;DHT22;19510;54.486;9.046;2023-11-19T22:47:09;10.60;99.90
16838;DHT22;19510;54.486;9.046;2023-11-19T22:49:34;10.70;99.90
16838;DHT22;19510;54.486;9.046;2023-11-19T22:52:00;10.60;99.90
16838;DHT22;19510;54.486;9.046;2023-11-19T22:54:27;10.60;99.90
16838;DHT22;19510;54.486;9.046;2023-11-19T22:56:52;10.60;99.90
16838;DHT22;19510;54.486;9.046;2023-11-19T22:59:18;10.50;99.90
16838;DHT22;19510;54.486;9.046;2023-11-19T23:01:44;10.50;99.90
16838;DHT22;19510;54.486;9.046;2023-11-19T23:04:10;10.60;99.90
16838;DHT22;19510;54.486;9.046;2023-11-19T23:06:36;10.50;99.90
16838;DHT22;19510;54.486;9.046;2023-11-19T23:09:02;10.50;99.90
16838;DHT22;19510;54.486;9.046;2023-11-19T23:11:33;10.50;99.90
16838;DHT22;19510;54.486;9.046;2023-11-19T23:13:59;10.50;99.90
16838;DHT22;19510;54.486;9.046;2023-11-19T23:16:25;10.50;99.90
16838;DHT22;19510;54.486;9.046;2023-11-19T23:18:55;10.50;99.90
16838;DHT22;19510;54.486;9.046;2023-11-19T23:21:20;10.50;99.90
16838;DHT22;19510;54.486;9.046;2023-11-19T23:23:46;10.50;99.90
16838;DHT22;19510;54.486;9.046;2023-11-19T23:26:12;10.50;99.90
16838;DHT22;19510;54.486;9.046;2023-11-19T23:28:40;10.50;99.90
16838;DHT22;19510;54.486;9.046;2023-11-19T23:31:06;10.50;99.90
16838;DHT22;19510;54.486;9.046;2023-11-19T23:33:33;10.50;99.90
16838;DHT22;19510;54.486;9.046;2023-11-19T23:35:58;10.50;99.90
16838;DHT22;19510;54.486;9.046;2023-11-19T23:38:24;10.50;99.90
16838;DHT22;19510;54.486;9.046;2023-11-19T23:40:49;10.50;99.90
16838;DHT22;19510;54.486;9.046;2023-11-19T23:43:15;10.50;99.90
16838;DHT22;19510;54.486;9.046;2023-11-19T23:45:42;10.60;99.90
16838;DHT22;19510;54.486;9.046;2023-11-19T23:48:08;10.50;99.90
16838;DHT22;19510;54.486;9.046;2023-11-19T23:50:35;10.60;99.90
16838;DHT22;19510;54.486;9.046;2023-11-19T23:53:01;10.60;99.90
16838;DHT22;19510;54.486;9.046;2023-11-19T23:55:28;10.60;99.90
16838;DHT22;19510;54.486;9.046;2023-11-19T23:57:54;10.60;99.90
